Latest Weather Observations for Butlers Gorge

IDT60801

Issued at 10:02 pm EST Thursday 30 July 2015 (issued every 30 minutes, with the page automatically refreshed every 10 minutes)

About weather observations | Map of weather stations | Latest weather observations for TAS | Other Formats
Station Details ID: 096003 Name: BUTLERS GORGE Lat: -42.28 Lon: 146.28 Height: 667.0 m
Data from the previous 72 hours. | See also: Recent months at Butlers Gorge
Date/Time
EST
Temp
°C
App
Temp
°C
Dew
Point
Rel
Hum
%
Delta-T
°C
Wind Press
QNH
hPa
Press
MSL
hPa
Rain
since 9 am
mm
Dir
 
Spd
km/h
Gust
km/h
Spd
kts
Gust
kts
30/10:00pm 1.8 -2.8 -1.1 81 1.1 SW 13 33 7 18 - - 12.8
30/09:30pm 2.4 -2.4 0.0 84 0.9 WSW 15 28 8 15 - - 12.6
30/09:00pm 2.3 -2.5 0.0 85 0.9 WSW 15 28 8 15 - - 12.0
30/08:30pm 1.2 -2.5 0.0 92 0.5 W 9 17 5 9 - - 11.2
30/08:00pm 2.3 -1.7 0.7 89 0.6 NW 11 24 6 13 - - 9.8
30/07:30pm 2.4 -1.6 0.8 89 0.6 NNW 11 28 6 15 - - 8.4
30/07:00pm 3.1 -1.2 1.2 87 0.8 WNW 13 28 7 15 - - 7.4
30/06:30pm 4.6 0.5 2.5 86 0.9 W 13 24 7 13 - - 5.2
30/06:00pm 5.0 0.5 2.4 83 1.1 NW 15 24 8 13 - - 3.2
30/05:30pm 4.9 0.5 2.6 85 1.0 NW 15 32 8 17 - - 3.0
30/05:00pm 5.3 1.7 2.7 83 1.1 NW 11 20 6 11 - - 1.8
30/04:30pm 5.5 1.8 2.5 81 1.3 NW 11 20 6 11 - - 1.2
30/04:00pm 5.4 0.9 2.4 81 1.3 WNW 15 28 8 15 - - 1.0
30/03:30pm 5.4 0.9 2.2 80 1.4 WNW 15 37 8 20 - - 0.6
30/03:00pm 6.0 1.5 2.3 77 1.6 WNW 15 32 8 17 - - 0.2
30/02:30pm 6.7 2.5 1.8 71 2.1 NW 13 22 7 12 - - 0.0
30/02:00pm 7.2 2.3 2.3 71 2.1 NNW 17 28 9 15 - - 0.0
30/01:30pm 8.0 3.0 1.6 64 2.7 NW 17 44 9 24 - - 0.0
30/01:00pm 7.8 3.2 1.6 65 2.6 NNW 15 24 8 13 - - 0.0
30/12:30pm 8.1 3.8 1.0 61 3.0 NW 13 43 7 23 - - 0.0
30/12:00pm 8.0 2.5 0.7 60 3.0 NNW 19 48 10 26 - - 0.0
30/11:30am 8.1 3.3 0.3 58 3.2 NW 15 37 8 20 - - 0.0
30/11:00am 7.6 3.3 0.8 62 2.8 NW 13 28 7 15 - - 0.0
30/10:30am 7.6 3.2 0.6 61 2.9 NNW 13 32 7 17 - - 0.0
30/10:00am 7.3 2.9 0.5 62 2.8 NNW 13 20 7 11 - - 0.0
30/09:30am 7.2 3.3 0.9 64 2.6 N 11 19 6 10 - - 0.0
30/09:00am 6.3 2.3 0.4 66 2.4 NW 11 19 6 10 - - 0.0
30/08:30am 5.5 1.5 0.3 69 2.1 NNW 11 24 6 13 - - 0.0
30/08:00am 5.2 1.1 0.0 69 2.1 NW 11 20 6 11 - - 0.0
30/07:30am 4.9 1.2 0.1 71 1.9 NW 9 20 5 11 - - 0.0
30/07:00am 5.0 0.5 0.0 70 2.0 NW 13 24 7 13 - - 0.0
30/06:30am 5.0 1.7 0.0 70 2.0 NW 7 19 4 10 - - 0.0
30/06:00am 5.3 1.7 0.3 70 2.0 NW 9 19 5 10 - - 0.0
30/05:30am 5.1 1.1 0.5 72 1.9 WNW 11 20 6 11 - - 0.0
30/05:00am 5.1 1.5 0.7 73 1.8 WNW 9 15 5 8 - - 0.0
30/04:30am 5.1 1.5 0.7 73 1.8 WNW 9 22 5 12 - - 0.0
30/04:00am 5.5 1.2 0.9 72 1.9 NW 13 24 7 13 - - 0.0
30/03:30am 5.4 1.8 0.8 72 1.9 NNW 9 28 5 15 - - 0.0
30/03:00am 5.7 1.4 1.2 73 1.9 NW 13 20 7 11 - - 0.0
30/02:30am 5.7 1.1 1.8 76 1.6 NW 15 26 8 14 - - 0.0
30/02:00am 5.1 1.7 1.6 78 1.5 NW 9 17 5 9 - - 0.0
30/01:30am 4.9 1.4 1.4 78 1.4 NW 9 22 5 12 - - 0.0
30/01:00am 5.3 1.8 1.2 75 1.7 WNW 9 20 5 11 - - 0.0
30/12:30am 5.5 0.8 1.2 74 1.8 WNW 15 24 8 13 - - 0.0
30/12:00am 5.6 0.7 1.9 77 1.6 WNW 17 28 9 15 - - 0.0
 
Date/Time
EST
Temp
°C
App
Temp
°C
Dew
Point
Rel
Hum
%
Delta-T
°C
Wind Press
QNH
hPa
Press
MSL
hPa
Rain
since 9 am
mm
Dir
 
Spd
km/h
Gust
km/h
Spd
kts
Gust
kts
29/11:30pm 5.4 1.4 3.1 85 1.0 WNW 13 24 7 13 - - 0.0
29/11:00pm 5.6 2.0 3.1 84 1.1 WNW 11 20 6 11 - - 0.0
29/10:30pm 5.9 1.9 2.9 81 1.3 WNW 13 22 7 12 - - 0.0
29/10:00pm 5.6 3.0 3.3 85 1.0 W 6 11 3 6 - - 0.0
29/09:30pm 5.9 2.7 3.1 82 1.2 WNW 9 17 5 9 - - 0.0
29/09:00pm 6.0 2.8 3.3 83 1.2 W 9 19 5 10 - - 0.0
29/08:30pm 5.6 2.8 3.4 86 1.0 W 7 17 4 9 - - 0.0
29/08:00pm 5.6 3.1 3.6 87 0.9 W 6 9 3 5 - - 0.0
29/07:30pm 5.2 3.0 3.2 87 0.9 WSW 4 9 2 5 - - 0.0
29/07:00pm 5.2 2.5 2.9 85 1.0 W 6 9 3 5 - - 0.0
29/06:30pm 4.9 2.2 2.4 84 1.1 WNW 6 9 3 5 - - 0.0
29/06:00pm 5.3 2.5 2.3 81 1.3 W 6 15 3 8 - - 0.0
29/05:30pm 5.6 2.7 2.4 80 1.4 W 7 17 4 9 - - 0.0
29/05:00pm 6.0 1.5 2.3 77 1.6 WNW 15 24 8 13 - - 0.0
29/04:30pm 6.3 1.5 2.4 76 1.7 WNW 17 28 9 15 - - 0.0
29/04:00pm 6.7 2.3 2.8 76 1.7 W 15 28 8 15 - - 0.0
29/03:30pm 7.1 4.0 3.5 78 1.6 W 9 20 5 11 - - 0.0
29/03:00pm 6.9 3.1 4.0 82 1.3 NW 13 24 7 13 - - 0.0
29/02:30pm 6.8 3.4 4.1 83 1.2 WNW 11 20 6 11 - - 0.0
29/02:00pm 7.4 3.5 3.3 75 1.8 WNW 13 24 7 13 - - 0.0
29/01:30pm 6.9 3.0 3.5 79 1.5 WNW 13 24 7 13 - - 0.0
29/01:00pm 7.0 3.1 3.3 77 1.6 NW 13 28 7 15 - - 0.0
29/12:30pm 6.7 3.2 3.5 80 1.4 NW 11 24 6 13 - - 0.0
29/12:00pm 6.5 2.1 2.9 78 1.6 NW 15 24 8 13 - - 0.0
29/11:30am 6.4 1.6 2.5 76 1.7 NW 17 26 9 14 - - 0.0
29/11:00am 6.3 2.3 2.9 79 1.5 NW 13 28 7 15 - - 0.0
29/10:30am 5.9 2.0 3.2 83 1.2 WNW 13 24 7 13 - - 0.0
29/10:00am 6.1 2.9 3.1 81 1.3 NW 9 15 5 8 - - 0.0
29/09:30am 5.5 2.2 2.7 82 1.2 NW 9 19 5 10 - - 0.0
29/09:00am 5.4 2.1 2.4 81 1.3 WNW 9 15 5 8 - - 2.4
29/08:30am 5.0 0.5 2.4 83 1.1 WNW 15 24 8 13 - - 2.4
29/08:00am 4.6 1.7 2.6 87 0.8 WNW 7 17 4 9 - - 2.4
29/07:30am 4.1 1.4 2.5 89 0.7 W 6 13 3 7 - - 2.4
29/07:00am 4.2 1.8 2.4 88 0.8 W 4 11 2 6 - - 2.4
29/06:30am 4.0 1.1 2.5 90 0.6 WSW 7 9 4 5 - - 2.4
29/06:00am 4.2 1.5 2.7 90 0.6 WNW 6 9 3 5 - - 2.4
29/05:30am 4.6 1.0 2.9 89 0.7 WNW 11 22 6 12 - - 2.4
29/05:00am 4.3 1.7 3.0 91 0.6 W 6 11 3 6 - - 2.4
29/04:30am 4.3 1.1 2.8 90 0.6 WNW 9 15 5 8 - - 2.4
29/04:00am 4.6 1.5 3.4 92 0.5 WNW 9 15 5 8 - - 2.4
29/03:30am 4.6 2.1 3.7 94 0.4 W 6 9 3 5 - - 2.4
29/03:00am 4.3 2.5 3.6 95 0.3 SSW 2 7 1 4 - - 2.4
29/02:30am 4.3 2.5 3.4 94 0.4 S 2 7 1 4 - - 2.4
29/02:00am 4.9 3.6 4.0 94 0.4 CALM 0 0 0 0 - - 2.4
29/01:30am 5.1 2.7 4.2 94 0.4 WSW 6 9 3 5 - - 2.4
29/01:00am 5.1 2.5 4.1 93 0.4 W 7 11 4 6 - - 2.4
29/12:30am 5.6 2.7 4.7 94 0.4 WNW 9 15 5 8 - - 2.4
29/12:00am 5.6 3.1 4.7 94 0.4 NW 7 13 4 7 - - 2.4
 
Date/Time
EST
Temp
°C
App
Temp
°C
Dew
Point
Rel
Hum
%
Delta-T
°C
Wind Press
QNH
hPa
Press
MSL
hPa
Rain
since 9 am
mm
Dir
 
Spd
km/h
Gust
km/h
Spd
kts
Gust
kts
28/11:30pm 5.8 3.5 4.9 94 0.4 NW 6 15 3 8 - - 2.2
28/11:00pm 5.8 3.3 4.9 94 0.4 NW 7 13 4 7 - - 2.2
28/10:30pm 5.6 4.4 4.7 94 0.4 CALM 0 6 0 3 - - 2.0
28/10:00pm 5.8 4.3 4.8 93 0.5 W 2 9 1 5 - - 2.0
28/09:30pm 5.9 3.6 4.9 93 0.5 W 6 11 3 6 - - 1.8
28/09:00pm 6.0 4.1 4.8 92 0.5 W 4 11 2 6 - - 1.8
28/08:30pm 6.2 3.8 4.5 89 0.8 W 6 15 3 8 - - 1.6
28/08:00pm 6.3 4.0 4.6 89 0.8 W 6 13 3 7 - - 1.6
28/07:30pm 6.3 3.8 4.6 89 0.8 NW 7 11 4 6 - - 1.6
28/07:00pm 6.3 3.8 4.8 90 0.7 W 7 15 4 8 - - 1.6
28/06:30pm 6.3 2.6 4.6 89 0.8 W 13 22 7 12 - - 1.4
28/06:00pm 6.3 3.0 4.6 89 0.8 WSW 11 19 6 10 - - 1.4
28/05:30pm 6.2 3.7 4.7 90 0.7 W 7 11 4 6 - - 1.2
28/05:00pm 6.5 3.2 4.8 89 0.8 W 11 19 6 10 - - 1.2
28/04:30pm 6.6 3.3 4.8 88 0.8 W 11 26 6 14 - - 1.2
28/04:00pm 6.6 3.0 4.8 88 0.8 W 13 24 7 13 - - 1.2
28/03:30pm 7.2 4.4 5.3 88 0.9 WNW 9 24 5 13 - - 1.0
28/03:00pm 7.5 5.2 5.5 87 0.9 WNW 7 17 4 9 - - 0.8
28/02:30pm 7.4 5.7 5.7 89 0.8 WNW 4 11 2 6 - - 0.8
28/02:00pm 8.0 5.7 5.5 84 1.2 WNW 7 13 4 7 - - 0.4
28/01:30pm 7.5 4.9 6.0 90 0.7 NNW 9 15 5 8 - - 0.4
28/01:00pm 6.9 4.2 5.4 90 0.7 NW 9 19 5 10 - - 0.4
28/12:30pm 6.7 3.9 5.2 90 0.7 NW 9 15 5 8 - - 0.4
28/12:00pm 6.4 3.6 5.2 92 0.5 NW 9 17 5 9 - - 0.4
28/11:30am 5.8 2.9 4.4 91 0.6 WNW 9 11 5 6 - - 0.4
28/11:00am 5.8 2.8 4.3 90 0.7 W 9 17 5 9 - - 0.4
28/10:30am 6.0 3.1 4.6 91 0.6 W 9 15 5 8 - - 0.4
28/10:00am 5.5 2.5 4.3 92 0.5 W 9 19 5 10 - - 0.2
28/09:30am 5.4 2.0 4.2 92 0.5 W 11 20 6 11 - - 0.2
28/09:00am 5.0 2.0 4.0 93 0.4 W 9 15 5 8 - - 31.0
28/08:30am 4.8 1.7 3.8 93 0.4 W 9 17 5 9 - - 30.8
28/08:00am 4.5 1.8 3.5 93 0.4 W 7 15 4 8 - - 30.6
28/07:30am 4.3 1.5 3.3 93 0.4 W 7 15 4 8 - - 30.6
28/07:00am 4.2 0.6 3.2 93 0.4 WNW 11 17 6 9 - - 30.2
28/06:30am 4.0 0.8 3.0 93 0.4 W 9 17 5 9 - - 29.8
28/06:00am 4.1 0.1 2.8 91 0.5 W 13 28 7 15 - - 29.4
28/05:30am 4.0 0.8 2.8 92 0.5 WSW 9 15 5 8 - - 29.0
28/05:00am 3.9 0.6 2.7 92 0.5 W 9 13 5 7 - - 28.6
28/04:30am 3.8 0.9 2.6 92 0.5 W 7 17 4 9 - - 28.2
28/04:00am 4.2 0.1 2.2 87 0.8 WSW 13 30 7 16 - - 27.2
28/03:30am 4.2 1.5 2.6 89 0.7 WSW 6 9 3 5 - - 27.0
28/03:00am 4.1 1.2 2.6 90 0.6 W 7 13 4 7 - - 26.6
28/02:30am 4.1 0.8 2.6 90 0.6 W 9 17 5 9 - - 26.6
28/02:00am 3.7 0.4 2.4 91 0.5 W 9 17 5 9 - - 26.4
28/01:30am 3.7 0.8 2.4 91 0.5 W 7 11 4 6 - - 26.4
28/01:00am 3.7 0.7 1.9 88 0.7 WSW 7 15 4 8 - - 26.0
28/12:30am 4.0 0.7 2.2 88 0.7 W 9 17 5 9 - - 26.0
28/12:00am 3.9 1.1 2.9 93 0.4 W 7 13 4 7 - - 26.0
 
Date/Time
EST
Temp
°C
App
Temp
°C
Dew
Point
Rel
Hum
%
Delta-T
°C
Wind Press
QNH
hPa
Press
MSL
hPa
Rain
since 9 am
mm
Dir
 
Spd
km/h
Gust
km/h
Spd
kts
Gust
kts
27/11:30pm 4.1 0.5 2.8 91 0.5 SW 11 17 6 9 - - 24.8
27/11:00pm 4.1 0.9 3.1 93 0.4 WSW 9 15 5 8 - - 24.4
27/10:30pm 4.4 0.8 3.1 91 0.6 WSW 11 22 6 12 - - 23.8

Other Formats:

Comma delimited format used in spreadsheet applications
http://www.bom.gov.au/fwo/IDT60801/IDT60801.94959.axf

JavaScript Object Notation format (JSON) in row-major order
http://www.bom.gov.au/fwo/IDT60801/IDT60801.94959.json